Ottine, TX (78658)

1:04 AM CDT on March 28, 2017 (GMT -0500)
East Luling | | Change Station

Elev 413 ft 29.68 °N, 97.64 °W | Updated 22 seconds ago

Overcast
Overcast
70.5 °F
Feels Like 70.5 °F
N
1.0
Wind Variable Wind from SSE

Today
High -- | Low -- °F
--% Chance of Precip.
Yesterday
High -- | Low -- °F
Precip. -- in
Pressure 29.84 in
Visibility 7.0 miles
Clouds Mostly Cloudy 1100 ft
Overcast 1800 ft
Dew Point 67 °F
Humidity 88%
Rainfall 0.00 in
Snow Depth Not available.
7:24 AM 7:46 PM
New Moon, 0% visible
METAR KT20 280555Z AUTO 13005KT 7SM BKN011 OVC018 21/21 A2984 RMK AO2 T02090209 10274 20208 402990189
Pressure 29.84 in
Visibility 7.0 miles
Clouds Mostly Cloudy 1100 ft
Overcast 1800 ft
Dew Point 67 °F
Humidity 88%
Rainfall 0.00 in
Snow Depth Not available.
7:24 AM 7:46 PM
New Moon, 0% visible
METAR KT20 280555Z AUTO 13005KT 7SM BKN011 OVC018 21/21 A2984 RMK AO2 T02090209 10274 20208 402990189

Get Severe Weather Alerts

Thanks for signing up!

Be on the lookout for a verification email in your inbox.

You'll start receiving the daily forecast at 8 AM.

×

10-Day Weather Forecast

Almanac

Astronomy

Mar. 28, 2017 Rise Set
Actual Time
Civil Twilight
Nautical Twilight
Astronomical Twilight
Moon
Length of Visible Light
Length of Day
Tomorrow will be .
, % of the Moon is Illuminated

Today's Extremes

State Highs State Lows

Community

WunderPhotos

Upload Photos

1,962,540 photos uploaded!

WunderBlog® & News

Nearby

Air Quality

  Air Quality AQ Index Pollutant
Not available.

Snow Depth

Station Depth Elevation

Earthquake Activity

City Distance Mag. Time & Date
Minimum magnitude displayed is 2.5.

Earthquake Activity

City Distance Mag. Time & Date
Minimum magnitude displayed is 2.5.

Coastal Water Temperatures

Place Temperature

Stations

Nearby Weather Stations

Station Location Temp. Windchill Dew Point Humidity Wind Precip. Elev Updated Type
                   

Watches & Warnings

There are currently no watches in effect.